^^
Station Historical Data
Daily Summary for September 21, 2017 Units:  Both    English   Metric
« Previous Day
Next Day »
Daily Weekly Monthly Yearly Custom
  High: Low: Average:
Temperature: TemperatureF °F /  -17.8 °C 63.9 °F /  17.7 °C 78.8 °F /  26 °C
Dew Point: DewpointF °F /  -17.8 °C 27.7 °F /  -2.4 °C 32.4 °F /  0.2 °C
Humidity: Humidity% 10% 20%
Wind Speed: WindSpeedMPHmph /  0km/h - 1mph /  1.6km/h
Wind Gust: WindSpeedGustMPHmph /  0km/h - -
Wind- - South
Pressure: PressureIn in /  0 hPa 30.09 in /  1018.8 hPa -
Precipitation: 0.00 in /  0 mm    
Historical Graphs
 
 
Tabular Data for September 21, 2017
Time Temperature Dew Point Pressure Wind Wind Speed Wind Gust Humidity Rainfall Rate (Hourly) solar Conditions
TemperatureF °F /  -17.8 °C DewpointF °F /  -17.8 °C PressureInin /  0hPa Calm     Humidity% HourlyPrecipInin /  0mm SolarRadiationWatts/m^2 W/m2 Conditions
00:01 73.8 °F /  23.2 °C 31.5 °F /  -0.3 °C 30.20in /  1022.6hPa Calm   1.0mph /  1.6km/h 21% 0.00in /  0mm 0.0 W/m2
00:07 73.9 °F /  23.3 °C 30.4 °F /  -0.9 °C 30.20in /  1022.6hPa ENE 0.9mph /  1.4km/h 1.0mph /  1.6km/h 20% 0.00in /  0mm 0.0 W/m2
00:13 73.9 °F /  23.3 °C 31.5 °F /  -0.3 °C 30.20in /  1022.6hPa Calm   1.0mph /  1.6km/h 21% 0.00in /  0mm 0.0 W/m2
00:19 73.9 °F /  23.3 °C 31.5 °F /  -0.3 °C 30.20in /  1022.6hPa ESE 2.0mph /  3.2km/h 2.0mph /  3.2km/h 21% 0.00in /  0mm 0.0 W/m2
00:25 73.8 °F /  23.2 °C 31.5 °F /  -0.3 °C 30.20in /  1022.6hPa Calm     21% 0.00in /  0mm 0.0 W/m2
00:31 73.6 °F /  23.1 °C 32.4 °F /  0.2 °C 30.20in /  1022.6hPa Calm     22% 0.00in /  0mm 0.0 W/m2
00:37 73.2 °F /  22.9 °C 32.2 °F /  0.1 °C 30.20in /  1022.6hPa Calm     22% 0.00in /  0mm 0.0 W/m2
00:43 73.0 °F /  22.8 °C 32.0 °F /  0 °C 30.20in /  1022.6hPa Calm     22% 0.00in /  0mm 0.0 W/m2
00:49 72.9 °F /  22.7 °C 31.8 °F /  -0.1 °C 30.20in /  1022.6hPa Calm     22% 0.00in /  0mm 0.0 W/m2
00:55 72.3 °F /  22.4 °C 32.4 °F /  0.2 °C 30.20in /  1022.6hPa Calm     23% 0.00in /  0mm 0.0 W/m2
01:01 72.0 °F /  22.2 °C 32.2 °F /  0.1 °C 30.20in /  1022.6hPa Calm     23% 0.00in /  0mm 0.0 W/m2
01:07 71.8 °F /  22.1 °C 33.1 °F /  0.6 °C 30.19in /  1022.2hPa Calm   1.0mph /  1.6km/h 24% 0.00in /  0mm 0.0 W/m2
01:13 71.4 °F /  21.9 °C 32.7 °F /  0.4 °C 30.20in /  1022.6hPa Calm   1.0mph /  1.6km/h 24% 0.00in /  0mm 0.0 W/m2
01:19 71.4 °F /  21.9 °C 32.7 °F /  0.4 °C 30.20in /  1022.6hPa Calm     24% 0.00in /  0mm 0.0 W/m2
01:25 71.2 °F /  21.8 °C 32.5 °F /  0.3 °C 30.19in /  1022.2hPa Calm     24% 0.00in /  0mm 0.0 W/m2
01:31 71.1 °F /  21.7 °C 33.4 °F /  0.8 °C 30.20in /  1022.6hPa Calm   2.0mph /  3.2km/h 25% 0.00in /  0mm 0.0 W/m2
01:37 71.1 °F /  21.7 °C 33.4 °F /  0.8 °C 30.19in /  1022.2hPa NE 0.9mph /  1.4km/h 3.0mph /  4.8km/h 25% 0.00in /  0mm 0.0 W/m2
01:43 71.2 °F /  21.8 °C 33.6 °F /  0.9 °C 30.19in /  1022.2hPa Calm   4.0mph /  6.4km/h 25% 0.00in /  0mm 0.0 W/m2
01:49 71.4 °F /  21.9 °C 32.7 °F /  0.4 °C 30.19in /  1022.2hPa Calm   2.0mph /  3.2km/h 24% 0.00in /  0mm 0.0 W/m2
02:01 71.4 °F /  21.9 °C 32.7 °F /  0.4 °C 30.18in /  1021.9hPa Calm   1.0mph /  1.6km/h 24% 0.00in /  0mm 0.0 W/m2
02:07 71.2 °F /  21.8 °C 32.5 °F /  0.3 °C 30.18in /  1021.9hPa ESE 0.9mph /  1.4km/h 1.0mph /  1.6km/h 24% 0.00in /  0mm 0.0 W/m2
02:13 71.1 °F /  21.7 °C 33.4 °F /  0.8 °C 30.18in /  1021.9hPa Calm     25% 0.00in /  0mm 0.0 W/m2
02:19 70.9 °F /  21.6 °C 33.3 °F /  0.7 °C 30.18in /  1021.9hPa Calm     25% 0.00in /  0mm 0.0 W/m2
02:25 70.3 °F /  21.3 °C 32.9 °F /  0.5 °C 30.18in /  1021.9hPa Calm   4.0mph /  6.4km/h 25% 0.00in /  0mm 0.0 W/m2
02:31 70.0 °F /  21.1 °C 33.4 °F /  0.8 °C 30.17in /  1021.6hPa Calm   2.0mph /  3.2km/h 26% 0.00in /  0mm 0.0 W/m2
02:37 70.0 °F /  21.1 °C 33.4 °F /  0.8 °C 30.17in /  1021.6hPa ESE 0.9mph /  1.4km/h 2.0mph /  3.2km/h 26% 0.00in /  0mm 0.0 W/m2
02:43 69.8 °F /  21 °C 33.4 °F /  0.8 °C 30.17in /  1021.6hPa Calm   5.0mph /  8km/h 26% 0.00in /  0mm 0.0 W/m2
02:50 70.0 °F /  21.1 °C 33.4 °F /  0.8 °C 30.17in /  1021.6hPa Calm   3.0mph /  4.8km/h 26% 0.00in /  0mm 0.0 W/m2
02:56 70.2 °F /  21.2 °C 33.6 °F /  0.9 °C 30.17in /  1021.6hPa Calm   5.0mph /  8km/h 26% 0.00in /  0mm 0.0 W/m2
03:02 70.3 °F /  21.3 °C 33.8 °F /  1 °C 30.17in /  1021.6hPa Calm   2.0mph /  3.2km/h 26% 0.00in /  0mm 0.0 W/m2
03:08 70.5 °F /  21.4 °C 34.0 °F /  1.1 °C 30.17in /  1021.6hPa Calm   1.0mph /  1.6km/h 26% 0.00in /  0mm 0.0 W/m2
03:14 70.7 °F /  21.5 °C 34.2 °F /  1.2 °C 30.17in /  1021.6hPa Calm   4.0mph /  6.4km/h 26% 0.00in /  0mm 0.0 W/m2
03:20 70.9 °F /  21.6 °C 34.3 °F /  1.3 °C 30.18in /  1021.9hPa Calm   2.0mph /  3.2km/h 26% 0.00in /  0mm 0.0 W/m2
03:26 71.1 °F /  21.7 °C 34.5 °F /  1.4 °C 30.18in /  1021.9hPa Calm   3.0mph /  4.8km/h 26% 0.00in /  0mm 0.0 W/m2
03:32 71.1 °F /  21.7 °C 34.5 °F /  1.4 °C 30.18in /  1021.9hPa North 0.9mph /  1.4km/h 3.0mph /  4.8km/h 26% 0.00in /  0mm 0.0 W/m2
03:38 70.9 °F /  21.6 °C 34.3 °F /  1.3 °C 30.18in /  1021.9hPa ENE 2.0mph /  3.2km/h 6.0mph /  9.7km/h 26% 0.00in /  0mm 0.0 W/m2
03:44 70.9 °F /  21.6 °C 34.3 °F /  1.3 °C 30.17in /  1021.6hPa Calm   4.0mph /  6.4km/h 26% 0.00in /  0mm 0.0 W/m2
03:50 70.7 °F /  21.5 °C 34.2 °F /  1.2 °C 30.18in /  1021.9hPa East 2.0mph /  3.2km/h 2.0mph /  3.2km/h 26% 0.00in /  0mm 0.0 W/m2
03:56 70.5 °F /  21.4 °C 34.0 °F /  1.1 °C 30.17in /  1021.6hPa Calm   2.0mph /  3.2km/h 26% 0.00in /  0mm 0.0 W/m2
04:02 70.2 °F /  21.2 °C 33.6 °F /  0.9 °C 30.17in /  1021.6hPa Calm   1.0mph /  1.6km/h 26% 0.00in /  0mm 0.0 W/m2
04:09 70.0 °F /  21.1 °C 34.5 °F /  1.4 °C 30.17in /  1021.6hPa East 4.9mph /  7.9km/h 5.0mph /  8km/h 27% 0.00in /  0mm 0.0 W/m2
04:15 69.8 °F /  21 °C 34.3 °F /  1.3 °C 30.17in /  1021.6hPa Calm   6.0mph /  9.7km/h 27% 0.00in /  0mm 0.0 W/m2
04:21 69.8 °F /  21 °C 34.3 °F /  1.3 °C 30.17in /  1021.6hPa Calm   5.0mph /  8km/h 27% 0.00in /  0mm 0.0 W/m2
04:27 70.0 °F /  21.1 °C 34.5 °F /  1.4 °C 30.17in /  1021.6hPa ENE 0.9mph /  1.4km/h 4.0mph /  6.4km/h 27% 0.00in /  0mm 0.0 W/m2
04:33 70.0 °F /  21.1 °C 34.5 °F /  1.4 °C 30.18in /  1021.9hPa Calm   6.0mph /  9.7km/h 27% 0.00in /  0mm 0.0 W/m2
04:39 70.0 °F /  21.1 °C 34.5 °F /  1.4 °C 30.18in /  1021.9hPa Calm   3.0mph /  4.8km/h 27% 0.00in /  0mm 0.0 W/m2
04:45 69.8 °F /  21 °C 34.3 °F /  1.3 °C 30.18in /  1021.9hPa Calm   3.0mph /  4.8km/h 27% 0.00in /  0mm 0.0 W/m2
04:51 69.4 °F /  20.8 °C 34.0 °F /  1.1 °C 30.18in /  1021.9hPa NE 2.9mph /  4.7km/h 6.0mph /  9.7km/h 27% 0.00in /  0mm 0.0 W/m2
04:57 69.4 °F /  20.8 °C 34.0 °F /  1.1 °C 30.18in /  1021.9hPa Calm   6.0mph /  9.7km/h 27% 0.00in /  0mm 0.0 W/m2
05:03 69.4 °F /  20.8 °C 34.0 °F /  1.1 °C 30.18in /  1021.9hPa NE 0.9mph /  1.4km/h 5.0mph /  8km/h 27% 0.00in /  0mm 0.0 W/m2
05:09 69.4 °F /  20.8 °C 34.0 °F /  1.1 °C 30.18in /  1021.9hPa Calm   3.0mph /  4.8km/h 27% 0.00in /  0mm 0.0 W/m2
05:16 69.4 °F /  20.8 °C 34.0 °F /  1.1 °C 30.18in /  1021.9hPa Calm   4.0mph /  6.4km/h 27% 0.00in /  0mm 0.0 W/m2
05:22 69.4 °F /  20.8 °C 34.0 °F /  1.1 °C 30.18in /  1021.9hPa Calm   3.0mph /  4.8km/h 27% 0.00in /  0mm 0.0 W/m2
05:28 69.3 °F /  20.7 °C 34.7 °F /  1.5 °C 30.19in /  1022.2hPa Calm   3.0mph /  4.8km/h 28% 0.00in /  0mm 0.0 W/m2
05:34 69.1 °F /  20.6 °C 34.5 °F /  1.4 °C 30.19in /  1022.2hPa Calm   4.0mph /  6.4km/h 28% 0.00in /  0mm 0.0 W/m2
05:36 68.9 °F /  20.5 °C 34.5 °F /  1.4 °C 30.19in /  1022.2hPa Calm   3.0mph /  4.8km/h 28% 0.00in /  0mm 0.0 W/m2
05:42 68.7 °F /  20.4 °C 34.3 °F /  1.3 °C 30.19in /  1022.2hPa North 2.9mph /  4.7km/h 4.0mph /  6.4km/h 28% 0.00in /  0mm 0.0 W/m2
05:44 68.7 °F /  20.4 °C 34.3 °F /  1.3 °C 30.19in /  1022.2hPa NE 4.0mph /  6.4km/h 5.0mph /  8km/h 28% 0.00in /  0mm 0.0 W/m2
05:46 68.7 °F /  20.4 °C 34.3 °F /  1.3 °C 30.19in /  1022.2hPa Calm   1.0mph /  1.6km/h 28% 0.00in /  0mm 0.0 W/m2
05:52 68.9 °F /  20.5 °C 34.5 °F /  1.4 °C 30.20in /  1022.6hPa NE 2.9mph /  4.7km/h 3.0mph /  4.8km/h 28% 0.00in /  0mm 0.0 W/m2
05:58 69.1 °F /  20.6 °C 34.5 °F /  1.4 °C 30.20in /  1022.6hPa NNE 0.9mph /  1.4km/h 3.0mph /  4.8km/h 28% 0.00in /  0mm 0.0 W/m2
06:05 68.9 °F /  20.5 °C 34.5 °F /  1.4 °C 30.20in /  1022.6hPa Calm   1.0mph /  1.6km/h 28% 0.00in /  0mm 0.0 W/m2
06:11 68.5 °F /  20.3 °C 35.1 °F /  1.7 °C 30.20in /  1022.6hPa Calm   1.0mph /  1.6km/h 29% 0.00in /  0mm 0.0 W/m2
06:15 68.4 °F /  20.2 °C 34.9 °F /  1.6 °C 30.20in /  1022.6hPa Calm   2.0mph /  3.2km/h 29% 0.00in /  0mm 0.0 W/m2
06:21 67.8 °F /  19.9 °C 34.3 °F /  1.3 °C 30.20in /  1022.6hPa Calm   1.0mph /  1.6km/h 29% 0.00in /  0mm 0.0 W/m2
06:27 67.3 °F /  19.6 °C 34.7 °F /  1.5 °C 30.20in /  1022.6hPa Calm   1.0mph /  1.6km/h 30% 0.00in /  0mm 0.0 W/m2
06:33 66.9 °F /  19.4 °C 34.5 °F /  1.4 °C 30.20in /  1022.6hPa Calm   1.0mph /  1.6km/h 30% 0.00in /  0mm 0.0 W/m2
06:39 66.4 °F /  19.1 °C 34.9 °F /  1.6 °C 30.21in /  1022.9hPa Calm     31% 0.00in /  0mm 0.0 W/m2
06:45 65.8 °F /  18.8 °C 34.3 °F /  1.3 °C 30.21in /  1022.9hPa Calm     31% 0.00in /  0mm 0.0 W/m2
06:52 65.5 °F /  18.6 °C 34.0 °F /  1.1 °C 30.21in /  1022.9hPa Calm     31% 0.00in /  0mm 7.0 W/m2
06:58 64.9 °F /  18.3 °C 34.3 °F /  1.3 °C 30.21in /  1022.9hPa Calm     32% 0.00in /  0mm 12.0 W/m2
07:04 64.6 °F /  18.1 °C 34.9 °F /  1.6 °C 30.21in /  1022.9hPa Calm     33% 0.00in /  0mm 18.0 W/m2
07:10 64.2 °F /  17.9 °C 34.5 °F /  1.4 °C 30.21in /  1022.9hPa Calm   1.0mph /  1.6km/h 33% 0.00in /  0mm 23.0 W/m2
07:16 64.0 °F /  17.8 °C 35.1 °F /  1.7 °C 30.22in /  1023.2hPa Calm     34% 0.00in /  0mm 28.0 W/m2
07:22 63.9 °F /  17.7 °C 34.9 °F /  1.6 °C 30.22in /  1023.2hPa Calm     34% 0.00in /  0mm 33.0 W/m2
07:28 63.9 °F /  17.7 °C 35.6 °F /  2 °C 30.22in /  1023.2hPa Calm     35% 0.00in /  0mm 39.0 W/m2
07:34 63.9 °F /  17.7 °C 36.3 °F /  2.4 °C 30.22in /  1023.2hPa Calm     36% 0.00in /  0mm 44.0 W/m2
07:40 63.9 °F /  17.7 °C 36.3 °F /  2.4 °C 30.22in /  1023.2hPa Calm     36% 0.00in /  0mm 47.0 W/m2
07:46 64.2 °F /  17.9 °C 36.7 °F /  2.6 °C 30.23in /  1023.6hPa Calm     36% 0.00in /  0mm 53.0 W/m2
07:52 64.6 °F /  18.1 °C 37.0 °F /  2.8 °C 30.23in /  1023.6hPa Calm   1.0mph /  1.6km/h 36% 0.00in /  0mm 67.0 W/m2
07:59 64.9 °F /  18.3 °C 37.4 °F /  3 °C 30.23in /  1023.6hPa Calm   1.0mph /  1.6km/h 36% 0.00in /  0mm 63.0 W/m2
08:05 65.5 °F /  18.6 °C 37.0 °F /  2.8 °C 30.23in /  1023.6hPa Calm   3.0mph /  4.8km/h 35% 0.00in /  0mm 67.0 W/m2
08:11 66.4 °F /  19.1 °C 37.2 °F /  2.9 °C 30.23in /  1023.6hPa Calm   1.0mph /  1.6km/h 34% 0.00in /  0mm 70.0 W/m2
08:17 67.3 °F /  19.6 °C 37.2 °F /  2.9 °C 30.23in /  1023.6hPa Calm   1.0mph /  1.6km/h 33% 0.00in /  0mm 74.0 W/m2
08:23 68.4 °F /  20.2 °C 37.4 °F /  3 °C 30.23in /  1023.6hPa Calm   1.0mph /  1.6km/h 32% 0.00in /  0mm 79.0 W/m2
08:29 69.4 °F /  20.8 °C 37.4 °F /  3 °C 30.23in /  1023.6hPa Calm   1.0mph /  1.6km/h 31% 0.00in /  0mm 83.0 W/m2
08:35 70.5 °F /  21.4 °C 37.6 °F /  3.1 °C 30.23in /  1023.6hPa East 2.0mph /  3.2km/h 2.0mph /  3.2km/h 30% 0.00in /  0mm 86.0 W/m2
08:41 71.4 °F /  21.9 °C 37.6 °F /  3.1 °C 30.23in /  1023.6hPa Calm   2.0mph /  3.2km/h 29% 0.00in /  0mm 91.0 W/m2
08:48 72.3 °F /  22.4 °C 37.4 °F /  3 °C 30.23in /  1023.6hPa Calm   1.0mph /  1.6km/h 28% 0.00in /  0mm 95.0 W/m2
08:54 73.0 °F /  22.8 °C 37.9 °F /  3.3 °C 30.23in /  1023.6hPa Calm   4.0mph /  6.4km/h 28% 0.00in /  0mm 100.0 W/m2
09:00 74.1 °F /  23.4 °C 37.0 °F /  2.8 °C 30.23in /  1023.6hPa East 0.9mph /  1.4km/h 3.0mph /  4.8km/h 26% 0.00in /  0mm 102.0 W/m2
09:06 75.2 °F /  24 °C 37.9 °F /  3.3 °C 30.23in /  1023.6hPa NNE 4.0mph /  6.4km/h 5.0mph /  8km/h 26% 0.00in /  0mm 105.0 W/m2
09:12 76.3 °F /  24.6 °C 36.9 °F /  2.7 °C 30.23in /  1023.6hPa NE 2.9mph /  4.7km/h 5.0mph /  8km/h 24% 0.00in /  0mm 111.0 W/m2
09:18 77.0 °F /  25 °C 37.4 °F /  3 °C 30.23in /  1023.6hPa NE 2.0mph /  3.2km/h 6.0mph /  9.7km/h 24% 0.00in /  0mm 113.0 W/m2
09:24 77.7 °F /  25.4 °C 37.0 °F /  2.8 °C 30.23in /  1023.6hPa ENE 2.0mph /  3.2km/h 8.0mph /  12.9km/h 23% 0.00in /  0mm 118.0 W/m2
09:30 78.3 °F /  25.7 °C 37.4 °F /  3 °C 30.23in /  1023.6hPa WNW 4.0mph /  6.4km/h 5.0mph /  8km/h 23% 0.00in /  0mm 121.0 W/m2
09:37 78.8 °F /  26 °C 36.7 °F /  2.6 °C 30.23in /  1023.6hPa Calm   4.0mph /  6.4km/h 22% 0.00in /  0mm 288.0 W/m2
09:43 79.3 °F /  26.3 °C 37.2 °F /  2.9 °C 30.23in /  1023.6hPa ENE 6.0mph /  9.7km/h 12.0mph /  19.3km/h 22% 0.00in /  0mm 503.0 W/m2
09:49 80.1 °F /  26.7 °C 36.7 °F /  2.6 °C 30.23in /  1023.6hPa ESE 0.9mph /  1.4km/h 8.0mph /  12.9km/h 21% 0.00in /  0mm 519.0 W/m2
09:55 81.0 °F /  27.2 °C 37.4 °F /  3 °C 30.22in /  1023.2hPa Calm   1.0mph /  1.6km/h 21% 0.00in /  0mm 533.0 W/m2
10:01 81.7 °F /  27.6 °C 37.9 °F /  3.3 °C 30.22in /  1023.2hPa Calm   7.0mph /  11.3km/h 21% 0.00in /  0mm 550.0 W/m2
10:07 82.2 °F /  27.9 °C 37.2 °F /  2.9 °C 30.22in /  1023.2hPa Calm   2.0mph /  3.2km/h 20% 0.00in /  0mm 573.0 W/m2
10:13 82.8 °F /  28.2 °C 37.6 °F /  3.1 °C 30.22in /  1023.2hPa NW 2.9mph /  4.7km/h 6.0mph /  9.7km/h 20% 0.00in /  0mm 592.0 W/m2
10:19 83.5 °F /  28.6 °C 36.9 °F /  2.7 °C 30.22in /  1023.2hPa NNE 4.0mph /  6.4km/h 5.0mph /  8km/h 19% 0.00in /  0mm 610.0 W/m2
10:26 83.8 °F /  28.8 °C 37.2 °F /  2.9 °C 30.22in /  1023.2hPa West 0.9mph /  1.4km/h 7.0mph /  11.3km/h 19% 0.00in /  0mm 628.0 W/m2
10:32 84.6 °F /  29.2 °C 36.3 °F /  2.4 °C 30.22in /  1023.2hPa East 2.0mph /  3.2km/h 7.0mph /  11.3km/h 18% 0.00in /  0mm 645.0 W/m2
10:38 84.9 °F /  29.4 °C 35.2 °F /  1.8 °C 30.21in /  1022.9hPa East 2.9mph /  4.7km/h 9.0mph /  14.5km/h 17% 0.00in /  0mm 659.0 W/m2
10:44 85.5 °F /  29.7 °C 35.6 °F /  2 °C 30.21in /  1022.9hPa NW 2.0mph /  3.2km/h 6.0mph /  9.7km/h 17% 0.00in /  0mm 675.0 W/m2
10:50 85.8 °F /  29.9 °C 36.0 °F /  2.2 °C 30.21in /  1022.9hPa NNE 4.0mph /  6.4km/h 9.0mph /  14.5km/h 17% 0.00in /  0mm 686.0 W/m2
10:56 86.4 °F /  30.2 °C 34.9 °F /  1.6 °C 30.21in /  1022.9hPa North 2.0mph /  3.2km/h 5.0mph /  8km/h 16% 0.00in /  0mm 701.0 W/m2
11:02 86.7 °F /  30.4 °C 35.2 °F /  1.8 °C 30.21in /  1022.9hPa North 2.0mph /  3.2km/h 7.0mph /  11.3km/h 16% 0.00in /  0mm 712.0 W/m2
11:09 86.9 °F /  30.5 °C 33.6 °F /  0.9 °C 30.21in /  1022.9hPa NE 2.9mph /  4.7km/h 8.0mph /  12.9km/h 15% 0.00in /  0mm 719.0 W/m2
11:15 87.3 °F /  30.7 °C 35.6 °F /  2 °C 30.20in /  1022.6hPa NNW 2.0mph /  3.2km/h 8.0mph /  12.9km/h 16% 0.00in /  0mm 738.0 W/m2
11:21 87.6 °F /  30.9 °C 34.3 °F /  1.3 °C 30.20in /  1022.6hPa North 4.9mph /  7.9km/h 6.0mph /  9.7km/h 15% 0.00in /  0mm 749.0 W/m2
11:27 88.2 °F /  31.2 °C 34.7 °F /  1.5 °C 30.20in /  1022.6hPa NNE 8.1mph /  13km/h 13.0mph /  20.9km/h 15% 0.00in /  0mm 756.0 W/m2
11:33 88.2 °F /  31.2 °C 32.9 °F /  0.5 °C 30.20in /  1022.6hPa NNW 2.0mph /  3.2km/h 10.0mph /  16.1km/h 14% 0.00in /  0mm 759.0 W/m2
11:39 88.5 °F /  31.4 °C 33.3 °F /  0.7 °C 30.20in /  1022.6hPa NW 6.9mph /  11.1km/h 11.0mph /  17.7km/h 14% 0.00in /  0mm 775.0 W/m2
11:45 88.9 °F /  31.6 °C 31.6 °F /  -0.2 °C 30.19in /  1022.2hPa NNW 2.9mph /  4.7km/h 6.0mph /  9.7km/h 13% 0.00in /  0mm 782.0 W/m2
11:51 89.2 °F /  31.8 °C 32.0 °F /  0 °C 30.19in /  1022.2hPa Calm   8.0mph /  12.9km/h 13% 0.00in /  0mm 786.0 W/m2
11:57 89.4 °F /  31.9 °C 32.2 °F /  0.1 °C 30.19in /  1022.2hPa North 2.0mph /  3.2km/h 6.0mph /  9.7km/h 13% 0.00in /  0mm 788.0 W/m2
12:04 89.8 °F /  32.1 °C 30.4 °F /  -0.9 °C 30.19in /  1022.2hPa NW 8.1mph /  13km/h 11.0mph /  17.7km/h 12% 0.00in /  0mm 800.0 W/m2
12:10 89.8 °F /  32.1 °C 30.4 °F /  -0.9 °C 30.18in /  1021.9hPa NNE 2.9mph /  4.7km/h 5.0mph /  8km/h 12% 0.00in /  0mm 800.0 W/m2
12:16 90.1 °F /  32.3 °C 28.6 °F /  -1.9 °C 30.18in /  1021.9hPa North 0.9mph /  1.4km/h 4.0mph /  6.4km/h 11% 0.00in /  0mm 807.0 W/m2
12:22 90.9 °F /  32.7 °C 29.1 °F /  -1.6 °C 30.18in /  1021.9hPa NNW 0.9mph /  1.4km/h 5.0mph /  8km/h 11% 0.00in /  0mm 807.0 W/m2
12:28 91.2 °F /  32.9 °C 31.5 °F /  -0.3 °C 30.18in /  1021.9hPa NNW 6.0mph /  9.7km/h 8.0mph /  12.9km/h 12% 0.00in /  0mm 810.0 W/m2
12:34 91.6 °F /  33.1 °C 29.7 °F /  -1.3 °C 30.17in /  1021.6hPa Calm   3.0mph /  4.8km/h 11% 0.00in /  0mm 819.0 W/m2
12:40 91.8 °F /  33.2 °C 29.8 °F /  -1.2 °C 30.17in /  1021.6hPa North 6.9mph /  11.1km/h 9.0mph /  14.5km/h 11% 0.00in /  0mm 809.0 W/m2
12:46 91.9 °F /  33.3 °C 30.0 °F /  -1.1 °C 30.17in /  1021.6hPa NE 2.0mph /  3.2km/h 9.0mph /  14.5km/h 11% 0.00in /  0mm 807.0 W/m2
12:53 91.6 °F /  33.1 °C 29.7 °F /  -1.3 °C 30.17in /  1021.6hPa NW 4.9mph /  7.9km/h 5.0mph /  8km/h 11% 0.00in /  0mm 812.0 W/m2
12:59 91.8 °F /  33.2 °C 29.8 °F /  -1.2 °C 30.16in /  1021.2hPa SSE 0.9mph /  1.4km/h 7.0mph /  11.3km/h 11% 0.00in /  0mm 807.0 W/m2
13:05 91.8 °F /  33.2 °C 32.0 °F /  0 °C 30.16in /  1021.2hPa North 2.9mph /  4.7km/h 6.0mph /  9.7km/h 12% 0.00in /  0mm 800.0 W/m2
13:11 91.8 °F /  33.2 °C 32.0 °F /  0 °C 30.16in /  1021.2hPa ENE 2.0mph /  3.2km/h 2.0mph /  3.2km/h 12% 0.00in /  0mm 800.0 W/m2
13:17 91.8 °F /  33.2 °C 29.8 °F /  -1.2 °C 30.15in /  1020.9hPa North 2.9mph /  4.7km/h 3.0mph /  4.8km/h 11% 0.00in /  0mm 807.0 W/m2
13:23 92.1 °F /  33.4 °C 30.0 °F /  -1.1 °C 30.15in /  1020.9hPa North 2.9mph /  4.7km/h 8.0mph /  12.9km/h 11% 0.00in /  0mm 803.0 W/m2
13:29 92.7 °F /  33.7 °C 28.2 °F /  -2.1 °C 30.15in /  1020.9hPa WNW 2.0mph /  3.2km/h 6.0mph /  9.7km/h 10% 0.00in /  0mm 810.0 W/m2
13:35 93.0 °F /  33.9 °C 30.7 °F /  -0.7 °C 30.14in /  1020.5hPa NNE 2.0mph /  3.2km/h 5.0mph /  8km/h 11% 0.00in /  0mm 802.0 W/m2
13:42 93.0 °F /  33.9 °C 28.4 °F /  -2 °C 30.14in /  1020.5hPa NNE 0.9mph /  1.4km/h 7.0mph /  11.3km/h 10% 0.00in /  0mm 788.0 W/m2
13:48 92.8 °F /  33.8 °C 30.6 °F /  -0.8 °C 30.14in /  1020.5hPa NW 4.9mph /  7.9km/h 7.0mph /  11.3km/h 11% 0.00in /  0mm 232.0 W/m2
13:54 92.1 °F /  33.4 °C 30.0 °F /  -1.1 °C 30.14in /  1020.5hPa North 2.0mph /  3.2km/h 7.0mph /  11.3km/h 11% 0.00in /  0mm 775.0 W/m2
14:00 92.1 °F /  33.4 °C 27.7 °F /  -2.4 °C 30.14in /  1020.5hPa North 0.9mph /  1.4km/h 7.0mph /  11.3km/h 10% 0.00in /  0mm 780.0 W/m2
14:06 92.5 °F /  33.6 °C 30.4 °F /  -0.9 °C 30.14in /  1020.5hPa WNW 4.0mph /  6.4km/h 7.0mph /  11.3km/h 11% 0.00in /  0mm 772.0 W/m2
14:12 92.7 °F /  33.7 °C 30.6 °F /  -0.8 °C 30.13in /  1020.2hPa WSW 2.0mph /  3.2km/h 7.0mph /  11.3km/h 11% 0.00in /  0mm 773.0 W/m2
14:18 92.8 °F /  33.8 °C 28.2 °F /  -2.1 °C 30.13in /  1020.2hPa NE 2.0mph /  3.2km/h 6.0mph /  9.7km/h 10% 0.00in /  0mm 352.0 W/m2
14:24 93.0 °F /  33.9 °C 28.4 °F /  -2 °C 30.13in /  1020.2hPa Calm   4.0mph /  6.4km/h 10% 0.00in /  0mm 754.0 W/m2
14:30 93.2 °F /  34 °C 28.6 °F /  -1.9 °C 30.12in /  1019.9hPa West 2.0mph /  3.2km/h 8.0mph /  12.9km/h 10% 0.00in /  0mm 751.0 W/m2
14:36 93.0 °F /  33.9 °C 28.4 °F /  -2 °C 30.12in /  1019.9hPa NE 2.0mph /  3.2km/h 7.0mph /  11.3km/h 10% 0.00in /  0mm 737.0 W/m2
14:42 93.6 °F /  34.2 °C 28.8 °F /  -1.8 °C 30.12in /  1019.9hPa WNW 2.9mph /  4.7km/h 8.0mph /  12.9km/h 10% 0.00in /  0mm 735.0 W/m2
14:49 93.6 °F /  34.2 °C 28.8 °F /  -1.8 °C 30.12in /  1019.9hPa NNW 2.0mph /  3.2km/h 5.0mph /  8km/h 10% 0.00in /  0mm 731.0 W/m2
14:55 93.6 °F /  34.2 °C 28.8 °F /  -1.8 °C 30.12in /  1019.9hPa Calm   4.0mph /  6.4km/h 10% 0.00in /  0mm 717.0 W/m2
15:01 93.6 °F /  34.2 °C 28.8 °F /  -1.8 °C 30.12in /  1019.9hPa Calm   3.0mph /  4.8km/h 10% 0.00in /  0mm 714.0 W/m2
15:07 93.7 °F /  34.3 °C 28.9 °F /  -1.7 °C 30.12in /  1019.9hPa NNW 4.0mph /  6.4km/h 8.0mph /  12.9km/h 10% 0.00in /  0mm 687.0 W/m2
15:13 94.1 °F /  34.5 °C 29.3 °F /  -1.5 °C 30.11in /  1019.5hPa NW 2.0mph /  3.2km/h 3.0mph /  4.8km/h 10% 0.00in /  0mm 686.0 W/m2
15:19 94.3 °F /  34.6 °C 29.3 °F /  -1.5 °C 30.11in /  1019.5hPa NNE 6.0mph /  9.7km/h 10.0mph /  16.1km/h 10% 0.00in /  0mm 640.0 W/m2
15:25 94.3 °F /  34.6 °C 29.3 °F /  -1.5 °C 30.11in /  1019.5hPa NNW 0.9mph /  1.4km/h 7.0mph /  11.3km/h 10% 0.00in /  0mm 647.0 W/m2
15:32 94.1 °F /  34.5 °C 29.3 °F /  -1.5 °C 30.11in /  1019.5hPa Calm   4.0mph /  6.4km/h 10% 0.00in /  0mm 496.0 W/m2
15:38 93.9 °F /  34.4 °C 29.1 °F /  -1.6 °C 30.11in /  1019.5hPa Calm   2.0mph /  3.2km/h 10% 0.00in /  0mm 612.0 W/m2
15:44 94.5 °F /  34.7 °C 29.5 °F /  -1.4 °C 30.10in /  1019.2hPa North 0.9mph /  1.4km/h 4.0mph /  6.4km/h 10% 0.00in /  0mm 585.0 W/m2
15:50 94.6 °F /  34.8 °C 29.7 °F /  -1.3 °C 30.10in /  1019.2hPa North 4.9mph /  7.9km/h 5.0mph /  8km/h 10% 0.00in /  0mm 563.0 W/m2
15:58 94.6 °F /  34.8 °C 29.7 °F /  -1.3 °C 30.10in /  1019.2hPa NNW 4.0mph /  6.4km/h 6.0mph /  9.7km/h 10% 0.00in /  0mm 527.0 W/m2
16:04 94.5 °F /  34.7 °C 29.5 °F /  -1.4 °C 30.10in /  1019.2hPa Calm   3.0mph /  4.8km/h 10% 0.00in /  0mm 497.0 W/m2
16:10 94.5 °F /  34.7 °C 29.5 °F /  -1.4 °C 30.10in /  1019.2hPa Calm   3.0mph /  4.8km/h 10% 0.00in /  0mm 473.0 W/m2
16:16 94.3 °F /  34.6 °C 29.3 °F /  -1.5 °C 30.10in /  1019.2hPa WSW 2.0mph /  3.2km/h 4.0mph /  6.4km/h 10% 0.00in /  0mm 457.0 W/m2
16:22 94.1 °F /  34.5 °C 31.6 °F /  -0.2 °C 30.10in /  1019.2hPa Calm   6.0mph /  9.7km/h 11% 0.00in /  0mm 427.0 W/m2
16:29 93.9 °F /  34.4 °C 29.1 °F /  -1.6 °C 30.10in /  1019.2hPa NW 4.0mph /  6.4km/h 8.0mph /  12.9km/h 10% 0.00in /  0mm 388.0 W/m2
16:35 93.7 °F /  34.3 °C 31.3 °F /  -0.4 °C 30.09in /  1018.8hPa North 4.0mph /  6.4km/h 7.0mph /  11.3km/h 11% 0.00in /  0mm 367.0 W/m2
16:41 93.7 °F /  34.3 °C 31.3 °F /  -0.4 °C 30.10in /  1019.2hPa North 4.0mph /  6.4km/h 4.0mph /  6.4km/h 11% 0.00in /  0mm 348.0 W/m2
16:47 93.7 °F /  34.3 °C 28.9 °F /  -1.7 °C 30.09in /  1018.8hPa Calm   5.0mph /  8km/h 10% 0.00in /  0mm 327.0 W/m2
16:53 93.9 °F /  34.4 °C 31.5 °F /  -0.3 °C 30.09in /  1018.8hPa WSW 0.9mph /  1.4km/h 3.0mph /  4.8km/h 11% 0.00in /  0mm 292.0 W/m2
16:59 93.9 °F /  34.4 °C 31.5 °F /  -0.3 °C 30.10in /  1019.2hPa Calm   3.0mph /  4.8km/h 11% 0.00in /  0mm 281.0 W/m2
17:05 93.9 °F /  34.4 °C 31.5 °F /  -0.3 °C 30.10in /  1019.2hPa NNW 0.9mph /  1.4km/h 5.0mph /  8km/h 11% 0.00in /  0mm 274.0 W/m2
17:11 93.9 °F /  34.4 °C 31.5 °F /  -0.3 °C 30.10in /  1019.2hPa Calm   5.0mph /  8km/h 11% 0.00in /  0mm 251.0 W/m2
17:18 93.7 °F /  34.3 °C 31.3 °F /  -0.4 °C 30.10in /  1019.2hPa Calm   5.0mph /  8km/h 11% 0.00in /  0mm 234.0 W/m2
17:24 93.6 °F /  34.2 °C 31.1 °F /  -0.5 °C 30.10in /  1019.2hPa Calm   1.0mph /  1.6km/h 11% 0.00in /  0mm 214.0 W/m2
17:30 93.4 °F /  34.1 °C 31.1 °F /  -0.5 °C 30.10in /  1019.2hPa Calm   2.0mph /  3.2km/h 11% 0.00in /  0mm 193.0 W/m2
17:36 93.2 °F /  34 °C 30.9 °F /  -0.6 °C 30.10in /  1019.2hPa WNW 2.0mph /  3.2km/h 3.0mph /  4.8km/h 11% 0.00in /  0mm 171.0 W/m2
17:42 92.8 °F /  33.8 °C 30.6 °F /  -0.8 °C 30.10in /  1019.2hPa Calm   2.0mph /  3.2km/h 11% 0.00in /  0mm 144.0 W/m2
17:48 92.5 °F /  33.6 °C 30.4 °F /  -0.9 °C 30.10in /  1019.2hPa Calm     11% 0.00in /  0mm 127.0 W/m2
17:54 92.3 °F /  33.5 °C 30.2 °F /  -1 °C 30.10in /  1019.2hPa Calm   5.0mph /  8km/h 11% 0.00in /  0mm 113.0 W/m2
18:00 91.9 °F /  33.3 °C 30.0 °F /  -1.1 °C 30.10in /  1019.2hPa WNW 0.9mph /  1.4km/h 3.0mph /  4.8km/h 11% 0.00in /  0mm 95.0 W/m2
18:06 91.4 °F /  33 °C 31.6 °F /  -0.2 °C 30.11in /  1019.5hPa NNW 0.9mph /  1.4km/h 2.0mph /  3.2km/h 12% 0.00in /  0mm 79.0 W/m2
18:13 90.5 °F /  32.5 °C 30.9 °F /  -0.6 °C 30.11in /  1019.5hPa NW 4.0mph /  6.4km/h 5.0mph /  8km/h 12% 0.00in /  0mm 60.0 W/m2
18:19 90.0 °F /  32.2 °C 30.6 °F /  -0.8 °C 30.11in /  1019.5hPa NNW 0.9mph /  1.4km/h 2.0mph /  3.2km/h 12% 0.00in /  0mm 44.0 W/m2
18:25 89.2 °F /  31.8 °C 30.0 °F /  -1.1 °C 30.11in /  1019.5hPa Calm   1.0mph /  1.6km/h 12% 0.00in /  0mm 32.0 W/m2
18:31 88.9 °F /  31.6 °C 31.6 °F /  -0.2 °C 30.11in /  1019.5hPa Calm   1.0mph /  1.6km/h 13% 0.00in /  0mm 19.0 W/m2
18:37 88.3 °F /  31.3 °C 31.3 °F /  -0.4 °C 30.11in /  1019.5hPa NNW 2.0mph /  3.2km/h 9.0mph /  14.5km/h 13% 0.00in /  0mm 11.0 W/m2
18:43 87.6 °F /  30.9 °C 30.7 °F /  -0.7 °C 30.11in /  1019.5hPa Calm   1.0mph /  1.6km/h 13% 0.00in /  0mm 5.0 W/m2
18:50 87.1 °F /  30.6 °C 30.2 °F /  -1 °C 30.11in /  1019.5hPa Calm   1.0mph /  1.6km/h 13% 0.00in /  0mm 0.0 W/m2
18:56 86.5 °F /  30.3 °C 29.8 °F /  -1.2 °C 30.12in /  1019.9hPa Calm     13% 0.00in /  0mm 0.0 W/m2
19:02 86.0 °F /  30 °C 32.9 °F /  0.5 °C 30.12in /  1019.9hPa Calm     15% 0.00in /  0mm 0.0 W/m2
19:08 85.5 °F /  29.7 °C 32.5 °F /  0.3 °C 30.12in /  1019.9hPa Calm     15% 0.00in /  0mm 0.0 W/m2
19:14 84.7 °F /  29.3 °C 32.0 °F /  0 °C 30.12in /  1019.9hPa Calm     15% 0.00in /  0mm 0.0 W/m2
19:20 84.0 °F /  28.9 °C 31.5 °F /  -0.3 °C 30.12in /  1019.9hPa Calm     15% 0.00in /  0mm 0.0 W/m2
19:24 83.7 °F /  28.7 °C 31.1 °F /  -0.5 °C 30.12in /  1019.9hPa Calm     15% 0.00in /  0mm 0.0 W/m2
19:30 83.1 °F /  28.4 °C 32.4 °F /  0.2 °C 30.12in /  1019.9hPa Calm   1.0mph /  1.6km/h 16% 0.00in /  0mm 0.0 W/m2
19:37 82.6 °F /  28.1 °C 30.2 °F /  -1 °C 30.13in /  1020.2hPa NE 0.9mph /  1.4km/h 2.0mph /  3.2km/h 15% 0.00in /  0mm 0.0 W/m2
19:43 82.0 °F /  27.8 °C 31.5 °F /  -0.3 °C 30.13in /  1020.2hPa Calm   1.0mph /  1.6km/h 16% 0.00in /  0mm 0.0 W/m2
19:49 81.9 °F /  27.7 °C 31.3 °F /  -0.4 °C 30.13in /  1020.2hPa Calm   1.0mph /  1.6km/h 16% 0.00in /  0mm 0.0 W/m2
19:55 81.5 °F /  27.5 °C 30.9 °F /  -0.6 °C 30.13in /  1020.2hPa NE 0.9mph /  1.4km/h 2.0mph /  3.2km/h 16% 0.00in /  0mm 0.0 W/m2
20:01 81.3 °F /  27.4 °C 30.9 °F /  -0.6 °C 30.13in /  1020.2hPa Calm   2.0mph /  3.2km/h 16% 0.00in /  0mm 0.0 W/m2
20:07 81.1 °F /  27.3 °C 30.7 °F /  -0.7 °C 30.14in /  1020.5hPa Calm   3.0mph /  4.8km/h 16% 0.00in /  0mm 0.0 W/m2
20:13 81.0 °F /  27.2 °C 30.6 °F /  -0.8 °C 30.14in /  1020.5hPa Calm   1.0mph /  1.6km/h 16% 0.00in /  0mm 0.0 W/m2
20:19 80.4 °F /  26.9 °C 31.6 °F /  -0.2 °C 30.14in /  1020.5hPa Calm   1.0mph /  1.6km/h 17% 0.00in /  0mm 0.0 W/m2
20:25 79.9 °F /  26.6 °C 31.1 °F /  -0.5 °C 30.14in /  1020.5hPa Calm     17% 0.00in /  0mm 0.0 W/m2
20:32 79.3 °F /  26.3 °C 30.7 °F /  -0.7 °C 30.14in /  1020.5hPa Calm     17% 0.00in /  0mm 0.0 W/m2
20:38 78.8 °F /  26 °C 30.4 °F /  -0.9 °C 30.14in /  1020.5hPa Calm     17% 0.00in /  0mm 0.0 W/m2
20:44 78.3 °F /  25.7 °C 31.3 °F /  -0.4 °C 30.15in /  1020.9hPa Calm     18% 0.00in /  0mm 0.0 W/m2
20:50 77.7 °F /  25.4 °C 30.9 °F /  -0.6 °C 30.15in /  1020.9hPa Calm     18% 0.00in /  0mm 0.0 W/m2
20:56 77.4 °F /  25.2 °C 30.6 °F /  -0.8 °C 30.15in /  1020.9hPa Calm   1.0mph /  1.6km/h 18% 0.00in /  0mm 0.0 W/m2
21:09 76.3 °F /  24.6 °C 30.9 °F /  -0.6 °C 30.16in /  1021.2hPa Calm     19% 0.00in /  0mm 0.0 W/m2
21:14 75.9 °F /  24.4 °C 30.7 °F /  -0.7 °C 30.16in /  1021.2hPa Calm   2.0mph /  3.2km/h 19% 0.00in /  0mm 0.0 W/m2
21:21 75.4 °F /  24.1 °C 30.2 °F /  -1 °C 30.16in /  1021.2hPa Calm     19% 0.00in /  0mm 0.0 W/m2
21:27 75.0 °F /  23.9 °C 30.0 °F /  -1.1 °C 30.16in /  1021.2hPa Calm     19% 0.00in /  0mm 0.0 W/m2
21:33 74.7 °F /  23.7 °C 30.9 °F /  -0.6 °C 30.17in /  1021.6hPa Calm   1.0mph /  1.6km/h 20% 0.00in /  0mm 0.0 W/m2
21:39 74.3 °F /  23.5 °C 30.6 °F /  -0.8 °C 30.17in /  1021.6hPa Calm   2.0mph /  3.2km/h 20% 0.00in /  0mm 0.0 W/m2
21:45 73.8 °F /  23.2 °C 30.2 °F /  -1 °C 30.18in /  1021.9hPa ESE 0.9mph /  1.4km/h 1.0mph /  1.6km/h 20% 0.00in /  0mm 0.0 W/m2
21:51 73.9 °F /  23.3 °C 30.4 °F /  -0.9 °C 30.18in /  1021.9hPa Calm     20% 0.00in /  0mm 0.0 W/m2
21:57 73.8 °F /  23.2 °C 31.5 °F /  -0.3 °C 30.18in /  1021.9hPa Calm   1.0mph /  1.6km/h 21% 0.00in /  0mm 0.0 W/m2
22:04 73.8 °F /  23.2 °C 31.5 °F /  -0.3 °C 30.18in /  1021.9hPa Calm     21% 0.00in /  0mm 0.0 W/m2
22:10 73.2 °F /  22.9 °C 30.9 °F /  -0.6 °C 30.18in /  1021.9hPa Calm   1.0mph /  1.6km/h 21% 0.00in /  0mm 0.0 W/m2
22:16 73.0 °F /  22.8 °C 30.7 °F /  -0.7 °C 30.18in /  1021.9hPa Calm     21% 0.00in /  0mm 0.0 W/m2
22:22 72.7 °F /  22.6 °C 30.6 °F /  -0.8 °C 30.18in /  1021.9hPa Calm     21% 0.00in /  0mm 0.0 W/m2
22:28 72.1 °F /  22.3 °C 31.1 °F /  -0.5 °C 30.19in /  1022.2hPa Calm     22% 0.00in /  0mm 0.0 W/m2
22:34 71.8 °F /  22.1 °C 30.9 °F /  -0.6 °C 30.19in /  1022.2hPa Calm     22% 0.00in /  0mm 0.0 W/m2
22:40 71.2 °F /  21.8 °C 30.4 °F /  -0.9 °C 30.19in /  1022.2hPa Calm     22% 0.00in /  0mm 0.0 W/m2
22:46 71.1 °F /  21.7 °C 30.2 °F /  -1 °C 30.19in /  1022.2hPa Calm     22% 0.00in /  0mm 0.0 W/m2
22:52 70.7 °F /  21.5 °C 30.0 °F /  -1.1 °C 30.20in /  1022.6hPa Calm   3.0mph /  4.8km/h 22% 0.00in /  0mm 0.0 W/m2
22:59 70.3 °F /  21.3 °C 29.7 °F /  -1.3 °C 30.20in /  1022.6hPa Calm   1.0mph /  1.6km/h 22% 0.00in /  0mm 0.0 W/m2
23:05 70.3 °F /  21.3 °C 29.7 °F /  -1.3 °C 30.19in /  1022.2hPa Calm   1.0mph /  1.6km/h 22% 0.00in /  0mm 0.0 W/m2
23:11 70.3 °F /  21.3 °C 30.7 °F /  -0.7 °C 30.20in /  1022.6hPa Calm     23% 0.00in /  0mm 0.0 W/m2
23:17 70.2 °F /  21.2 °C 30.6 °F /  -0.8 °C 30.20in /  1022.6hPa Calm     23% 0.00in /  0mm 0.0 W/m2
23:23 69.8 °F /  21 °C 30.4 °F /  -0.9 °C 30.20in /  1022.6hPa Calm     23% 0.00in /  0mm 0.0 W/m2
23:29 69.6 °F /  20.9 °C 31.3 °F /  -0.4 °C 30.20in /  1022.6hPa Calm     24% 0.00in /  0mm 0.0 W/m2
23:35 69.4 °F /  20.8 °C 31.1 °F /  -0.5 °C 30.20in /  1022.6hPa Calm     24% 0.00in /  0mm 0.0 W/m2
23:41 69.1 °F /  20.6 °C 30.7 °F /  -0.7 °C 30.20in /  1022.6hPa Calm     24% 0.00in /  0mm 0.0 W/m2
23:48 68.7 °F /  20.4 °C 30.4 °F /  -0.9 °C 30.20in /  1022.6hPa Calm     24% 0.00in /  0mm 0.0 W/m2
23:54 68.4 °F /  20.2 °C 30.2 °F /  -1 °C 30.20in /  1022.6hPa Calm     24% 0.00in /  0mm 0.0 W/m2
Olympia, Windhoek, Namibia
Compliments of Weather Underground - 3 mb